createdAt,value
2018-01-23T00:02:18.917Z,31.80
2018-01-23T00:04:47.560Z,29.95
2018-01-23T00:07:16.011Z,29.33
2018-01-23T00:09:45.111Z,38.05
2018-01-23T00:12:13.796Z,35.53
2018-01-23T00:14:42.411Z,35.75
2018-01-23T00:17:11.044Z,35.80
2018-01-23T00:19:39.652Z,34.65
2018-01-23T00:22:08.370Z,31.83
2018-01-23T00:24:36.864Z,37.28
2018-01-23T00:27:05.525Z,33.70
2018-01-23T00:29:33.961Z,35.38
2018-01-23T00:32:02.414Z,32.50
2018-01-23T00:34:31.129Z,34.92
2018-01-23T00:36:59.556Z,34.42
2018-01-23T00:39:27.990Z,35.58
2018-01-23T00:41:56.485Z,37.67
2018-01-23T00:44:24.950Z,41.37
2018-01-23T00:46:53.468Z,39.22
2018-01-23T00:49:22.052Z,34.88
2018-01-23T00:51:50.593Z,37.70
2018-01-23T00:54:19.195Z,33.83
2018-01-23T00:56:47.785Z,40.35
2018-01-23T00:59:17.290Z,39.80
2018-01-23T01:01:45.772Z,33.63
2018-01-23T01:04:14.428Z,36.40
2018-01-23T01:06:43.042Z,33.05
2018-01-23T01:09:11.623Z,31.90
2018-01-23T01:11:40.648Z,38.47
2018-01-23T01:14:09.303Z,39.95
2018-01-23T01:16:37.911Z,38.08
2018-01-23T01:19:06.696Z,37.70
2018-01-23T01:21:35.117Z,33.17
2018-01-23T01:24:03.551Z,37.08
2018-01-23T01:26:32.010Z,34.58
2018-01-23T01:29:00.456Z,34.17
2018-01-23T01:31:28.874Z,34.83
2018-01-23T01:33:57.349Z,40.70
2018-01-23T01:36:25.768Z,39.17
2018-01-23T01:38:54.176Z,36.88
2018-01-23T01:41:22.689Z,45.03
2018-01-23T01:43:51.135Z,40.55
2018-01-23T01:46:19.585Z,37.30
2018-01-23T01:48:53.946Z,35.08
2018-01-23T01:51:22.377Z,43.53
2018-01-23T01:53:50.814Z,39.25
2018-01-23T01:56:19.383Z,44.17
2018-01-23T01:58:47.916Z,40.45
2018-01-23T02:01:16.684Z,39.85
2018-01-23T02:03:45.328Z,35.67
2018-01-23T02:06:13.810Z,36.58
2018-01-23T02:08:42.336Z,35.83
2018-01-23T02:11:10.838Z,51.08
2018-01-23T02:13:39.567Z,42.05
2018-01-23T02:16:08.081Z,34.00
2018-01-23T02:18:36.615Z,37.03
2018-01-23T02:21:05.073Z,36.90
2018-01-23T02:23:33.496Z,38.80
2018-01-23T02:26:02.058Z,35.92
2018-01-23T02:28:30.484Z,48.25
2018-01-23T02:30:58.914Z,32.97
2018-01-23T02:33:27.393Z,45.80
2018-01-23T02:35:55.869Z,35.30
2018-01-23T02:38:24.356Z,50.38
2018-01-23T02:40:52.816Z,38.92
2018-01-23T02:43:21.467Z,36.33
2018-01-23T02:45:50.036Z,34.70
2018-01-23T02:48:18.687Z,31.40
2018-01-23T02:50:47.270Z,33.55
2018-01-23T02:53:15.786Z,40.35
2018-01-23T02:55:44.342Z,35.83
2018-01-23T02:58:12.810Z,39.60
2018-01-23T03:00:41.392Z,44.65
2018-01-23T03:03:10.278Z,39.72
2018-01-23T03:05:39.309Z,36.88
2018-01-23T03:08:08.502Z,41.55
2018-01-23T03:10:37.157Z,38.08
2018-01-23T03:13:05.601Z,40.50
2018-01-23T03:15:34.036Z,42.17
2018-01-23T03:18:02.524Z,35.75
2018-01-23T03:20:30.926Z,33.95
2018-01-23T03:22:59.364Z,41.05
2018-01-23T03:25:27.836Z,33.00
2018-01-23T03:27:56.334Z,37.75
2018-01-23T03:30:25.523Z,37.05
2018-01-23T03:32:54.226Z,42.60
2018-01-23T03:35:22.732Z,38.90
2018-01-23T03:37:51.235Z,38.22
2018-01-23T03:40:19.918Z,42.10
2018-01-23T03:42:48.370Z,43.80
2018-01-23T03:45:16.913Z,38.55
2018-01-23T03:47:45.398Z,40.60
2018-01-23T03:50:13.869Z,42.50
2018-01-23T03:52:42.345Z,39.67
2018-01-23T03:55:11.049Z,40.80
2018-01-23T03:57:39.560Z,46.67
2018-01-23T04:00:08.036Z,57.13
2018-01-23T04:02:36.516Z,47.13
2018-01-23T04:05:05.737Z,46.63
2018-01-23T04:07:34.168Z,45.28
2018-01-23T04:10:02.681Z,41.42
2018-01-23T04:12:31.100Z,39.60
2018-01-23T04:14:59.519Z,35.00
2018-01-23T04:17:28.265Z,38.42
2018-01-23T04:19:56.716Z,38.38
2018-01-23T04:22:25.126Z,48.95
2018-01-23T04:24:53.626Z,38.80
2018-01-23T04:27:22.391Z,42.17
2018-01-23T04:29:50.904Z,38.92
2018-01-23T04:32:19.352Z,40.88
2018-01-23T04:34:47.906Z,46.67
2018-01-23T04:37:16.422Z,39.92
2018-01-23T04:39:45.000Z,53.67
2018-01-23T04:42:14.231Z,46.97
2018-01-23T04:44:42.778Z,45.08
2018-01-23T04:47:11.363Z,43.25
2018-01-23T04:49:39.845Z,42.42
2018-01-23T04:52:09.144Z,35.17
2018-01-23T04:54:37.830Z,42.83
2018-01-23T04:57:06.286Z,43.08
2018-01-23T04:59:34.717Z,48.67
2018-01-23T05:02:03.200Z,44.63
2018-01-23T05:04:31.627Z,53.25
2018-01-23T05:07:00.154Z,46.30
2018-01-23T05:09:28.653Z,56.83
2018-01-23T05:11:57.258Z,46.05
2018-01-23T05:14:25.674Z,55.05
2018-01-23T05:16:54.192Z,53.85
2018-01-23T05:19:22.769Z,48.38
2018-01-23T05:21:51.226Z,44.65
2018-01-23T05:24:19.742Z,43.15
2018-01-23T05:26:48.288Z,43.65
2018-01-23T05:29:16.804Z,51.28
2018-01-23T05:31:45.454Z,56.45
2018-01-23T05:34:13.943Z,54.03
2018-01-23T05:36:42.454Z,53.87
2018-01-23T05:39:11.080Z,47.45
2018-01-23T05:41:39.618Z,45.83
2018-01-23T05:44:08.044Z,49.35
2018-01-23T05:46:36.631Z,52.00
2018-01-23T05:49:05.072Z,44.45
2018-01-23T05:51:33.492Z,40.47
2018-01-23T05:54:01.965Z,60.75
2018-01-23T05:56:30.395Z,43.60
2018-01-23T05:58:58.853Z,41.15
2018-01-23T06:01:27.343Z,40.12
2018-01-23T06:03:55.790Z,37.40
2018-01-23T06:06:24.609Z,45.53
2018-01-23T06:08:53.124Z,42.80
2018-01-23T06:11:23.820Z,43.97
2018-01-23T06:13:52.541Z,40.92
2018-01-23T06:16:21.294Z,42.75
2018-01-23T06:18:49.831Z,37.75
2018-01-23T06:21:18.525Z,38.90
2018-01-23T06:23:47.114Z,37.92
2018-01-23T06:26:15.758Z,40.53
2018-01-23T06:28:44.270Z,36.80
2018-01-23T06:31:12.825Z,50.63
2018-01-23T06:33:41.435Z,39.38
2018-01-23T06:36:10.195Z,40.78
2018-01-23T06:38:39.175Z,42.20
2018-01-23T06:41:09.197Z,51.83
2018-01-23T06:43:38.743Z,45.75
2018-01-23T06:46:07.204Z,47.50
2018-01-23T06:48:35.673Z,54.50
2018-01-23T06:51:04.729Z,53.35
2018-01-23T06:53:33.289Z,43.22
2018-01-23T06:56:01.766Z,42.80
2018-01-23T06:58:30.227Z,48.03
2018-01-23T07:00:58.729Z,53.65
2018-01-23T07:03:27.187Z,44.67
2018-01-23T07:05:55.647Z,39.60
2018-01-23T07:08:24.222Z,37.95
2018-01-23T07:10:52.842Z,35.95
2018-01-23T07:13:21.499Z,39.40
2018-01-23T07:15:49.949Z,43.17
2018-01-23T07:18:18.438Z,39.05
2018-01-23T07:20:46.949Z,33.30
2018-01-23T07:23:15.488Z,36.22
2018-01-23T07:25:44.036Z,33.63
2018-01-23T07:28:12.569Z,27.85
2018-01-23T07:30:41.590Z,34.70
2018-01-23T07:33:10.074Z,31.67
2018-01-23T07:35:38.521Z,27.83
2018-01-23T07:38:07.004Z,26.45
2018-01-23T07:40:35.412Z,31.15
2018-01-23T07:43:03.893Z,28.67
2018-01-23T07:45:32.520Z,25.58
2018-01-23T07:48:00.956Z,32.60
2018-01-23T07:50:29.374Z,32.00
2018-01-23T07:52:57.851Z,27.85
2018-01-23T07:55:26.364Z,34.95
2018-01-23T07:57:54.776Z,37.08
2018-01-23T08:00:23.384Z,31.95
2018-01-23T08:02:51.840Z,33.25
2018-01-23T08:05:20.318Z,41.60
2018-01-23T08:07:49.052Z,36.05
2018-01-23T08:10:17.557Z,34.20
2018-01-23T08:12:46.087Z,33.55
2018-01-23T08:15:14.654Z,37.95
2018-01-23T08:17:43.105Z,42.30
2018-01-23T08:20:12.100Z,39.05
2018-01-23T08:22:41.117Z,35.30
2018-01-23T08:25:09.804Z,42.28
2018-01-23T08:27:39.181Z,49.70
2018-01-23T08:30:08.068Z,48.78
2018-01-23T08:32:36.552Z,43.67
2018-01-23T08:35:04.994Z,39.95
2018-01-23T08:37:33.513Z,51.88
2018-01-23T08:40:01.968Z,44.00
2018-01-23T08:42:30.396Z,47.85
2018-01-23T08:44:58.890Z,46.40
2018-01-23T08:47:27.361Z,43.87
2018-01-23T08:49:55.782Z,43.58
2018-01-23T08:52:24.725Z,56.67
2018-01-23T08:54:53.373Z,52.65
2018-01-23T08:57:21.900Z,51.33
2018-01-23T08:59:50.813Z,59.10
2018-01-23T09:02:19.408Z,47.53
2018-01-23T09:04:47.955Z,63.33
2018-01-23T09:07:17.912Z,55.28
2018-01-23T09:09:46.431Z,41.00
2018-01-23T09:12:14.930Z,66.82
2018-01-23T09:14:43.789Z,41.60
2018-01-23T09:17:12.253Z,53.72
2018-01-23T09:19:40.840Z,47.90
2018-01-23T09:22:10.655Z,45.75
2018-01-23T09:24:39.154Z,50.30
2018-01-23T09:27:07.672Z,53.38
2018-01-23T09:29:36.220Z,66.20
2018-01-23T09:32:04.675Z,48.58
2018-01-23T09:34:33.157Z,51.95
2018-01-23T09:37:02.082Z,49.72
2018-01-23T09:39:30.556Z,47.20
2018-01-23T09:41:59.033Z,47.33
2018-01-23T09:44:27.821Z,99.57
2018-01-23T09:46:56.243Z,68.18
2018-01-23T09:49:24.680Z,44.58
2018-01-23T09:51:53.316Z,62.22
2018-01-23T09:54:21.863Z,53.47
2018-01-23T09:56:50.554Z,53.17
2018-01-23T09:59:19.125Z,53.20
2018-01-23T10:01:47.670Z,47.60
2018-01-23T10:04:16.191Z,53.87
2018-01-23T10:06:45.179Z,53.35
2018-01-23T10:09:13.650Z,66.47
2018-01-23T10:11:42.270Z,84.55
2018-01-23T10:14:11.226Z,56.70
2018-01-23T10:16:39.750Z,74.03
2018-01-23T10:19:08.433Z,55.40
2018-01-23T10:21:37.016Z,70.78
2018-01-23T10:24:05.697Z,68.93
2018-01-23T10:26:34.180Z,70.75
2018-01-23T10:29:02.878Z,82.75
2018-01-23T10:31:31.496Z,73.22
2018-01-23T10:34:00.044Z,64.53
2018-01-23T10:36:28.557Z,59.50
2018-01-23T10:38:57.607Z,89.10
2018-01-23T10:41:26.038Z,88.37
2018-01-23T10:43:54.524Z,87.35
2018-01-23T10:46:23.059Z,73.25
2018-01-23T10:48:51.626Z,69.03
2018-01-23T10:51:20.524Z,68.35
2018-01-23T10:53:50.060Z,49.22
2018-01-23T10:56:18.919Z,97.57
2018-01-23T10:58:48.391Z,59.45
2018-01-23T11:01:17.007Z,82.70
2018-01-23T11:03:45.770Z,81.78
2018-01-23T11:06:14.565Z,91.25
2018-01-23T11:08:44.533Z,78.32
2018-01-23T11:11:13.225Z,74.65
2018-01-23T11:13:41.866Z,67.97
2018-01-23T11:16:10.737Z,74.75
2018-01-23T11:18:39.442Z,72.60
2018-01-23T11:21:07.972Z,97.78
2018-01-23T11:23:36.463Z,48.42
2018-01-23T11:26:04.998Z,69.72
2018-01-23T11:28:33.614Z,67.95
2018-01-23T11:31:02.209Z,61.05
2018-01-23T11:33:30.650Z,66.12
2018-01-23T11:35:59.151Z,67.82
2018-01-23T11:38:27.885Z,57.03
2018-01-23T11:40:56.370Z,68.20
2018-01-23T11:43:25.055Z,57.58
2018-01-23T11:45:53.504Z,52.75
2018-01-23T11:48:22.077Z,67.07
2018-01-23T11:50:51.007Z,53.15
2018-01-23T11:53:19.490Z,57.85
2018-01-23T11:55:48.035Z,57.97
2018-01-23T11:58:16.736Z,63.50
2018-01-23T12:00:46.328Z,55.85
2018-01-23T12:03:14.867Z,54.25
2018-01-23T12:05:43.634Z,59.70
2018-01-23T12:08:12.236Z,60.12
2018-01-23T12:10:41.281Z,62.38
2018-01-23T12:13:09.894Z,55.03
2018-01-23T12:15:38.372Z,45.28
2018-01-23T12:18:07.023Z,64.20
2018-01-23T12:20:35.543Z,67.03
2018-01-23T12:23:04.018Z,52.13
2018-01-23T12:25:33.571Z,80.82
2018-01-23T12:28:02.517Z,48.63
2018-01-23T12:30:30.995Z,62.15
2018-01-23T12:33:10.815Z,65.80
2018-01-23T12:35:39.429Z,60.45
2018-01-23T12:38:08.059Z,62.35
2018-01-23T12:40:36.564Z,65.07
2018-01-23T12:43:05.120Z,64.93
2018-01-23T12:45:33.596Z,60.28
2018-01-23T12:48:02.179Z,63.45
2018-01-23T12:50:30.643Z,66.15
2018-01-23T12:52:59.099Z,58.47
2018-01-23T12:55:28.539Z,55.88
2018-01-23T12:57:56.947Z,62.92
2018-01-23T13:00:26.121Z,46.90
2018-01-23T13:02:54.852Z,81.25
2018-01-23T13:05:23.387Z,54.92
2018-01-23T13:07:52.076Z,68.60
2018-01-23T13:10:21.088Z,48.50
2018-01-23T13:12:49.618Z,54.58
2018-01-23T13:15:18.126Z,54.58
2018-01-23T13:17:46.752Z,56.50
2018-01-23T13:20:15.651Z,55.55
2018-01-23T13:22:44.318Z,53.47
2018-01-23T13:25:13.278Z,55.42
2018-01-23T13:27:42.518Z,41.47
2018-01-23T13:30:11.478Z,53.90
2018-01-23T13:32:40.055Z,41.88
2018-01-23T13:35:08.528Z,55.60
2018-01-23T13:37:37.083Z,53.10
2018-01-23T13:40:05.644Z,48.97
2018-01-23T13:42:34.277Z,51.20
2018-01-23T13:45:02.715Z,51.20
2018-01-23T13:47:31.216Z,41.97
2018-01-23T13:50:00.029Z,72.53
2018-01-23T13:52:28.515Z,59.90
2018-01-23T13:54:57.498Z,56.30
2018-01-23T13:57:26.083Z,66.43
2018-01-23T13:59:54.655Z,55.97
2018-01-23T14:02:23.194Z,68.75
2018-01-23T14:04:51.736Z,46.42
2018-01-23T14:07:21.239Z,62.95
2018-01-23T14:09:49.981Z,54.95
2018-01-23T14:12:19.069Z,65.40
2018-01-23T14:14:47.752Z,57.20
2018-01-23T14:17:16.305Z,66.03
2018-01-23T14:19:45.391Z,56.13
2018-01-23T14:22:14.190Z,68.05
2018-01-23T14:24:42.856Z,61.88
2018-01-23T14:27:11.464Z,60.53
2018-01-23T14:29:40.344Z,60.97
2018-01-23T14:32:09.015Z,74.90
2018-01-23T14:34:37.823Z,65.37
2018-01-23T14:37:06.615Z,69.15
2018-01-23T14:39:35.298Z,84.93
2018-01-23T14:42:03.862Z,71.85
2018-01-23T14:44:32.325Z,64.53
2018-01-23T14:47:00.841Z,84.40
2018-01-23T14:49:29.299Z,60.28
2018-01-23T14:51:57.793Z,72.55
2018-01-23T14:54:26.374Z,59.42
2018-01-23T14:56:54.948Z,59.88
2018-01-23T14:59:23.545Z,86.15
2018-01-23T15:01:52.098Z,52.85
2018-01-23T15:04:20.696Z,57.75
2018-01-23T15:06:50.313Z,70.45
2018-01-23T15:09:20.151Z,50.58
2018-01-23T15:11:48.820Z,67.53
2018-01-23T15:14:17.658Z,74.03
2018-01-23T15:16:46.855Z,69.70
2018-01-23T15:19:15.317Z,61.63
2018-01-23T15:21:43.974Z,66.45
2018-01-23T15:24:12.581Z,60.42
2018-01-23T15:26:41.143Z,65.82
2018-01-23T15:29:10.568Z,72.37
2018-01-23T15:31:39.092Z,56.05
2018-01-23T15:34:07.573Z,68.85
2018-01-23T15:36:36.010Z,56.13
2018-01-23T15:39:04.950Z,54.10
2018-01-23T15:41:33.546Z,59.35
2018-01-23T15:44:02.234Z,55.22
2018-01-23T15:46:30.897Z,54.80
2018-01-23T15:48:59.680Z,51.60
2018-01-23T15:51:28.298Z,52.80
2018-01-23T15:53:56.930Z,51.05
2018-01-23T15:56:25.511Z,55.75
2018-01-23T15:58:53.966Z,48.80
2018-01-23T16:01:22.805Z,66.40
2018-01-23T16:03:51.284Z,49.40
2018-01-23T16:06:19.777Z,53.28
2018-01-23T16:08:48.329Z,58.13
2018-01-23T16:11:16.863Z,41.83
2018-01-23T16:13:45.337Z,50.33
2018-01-23T16:16:14.206Z,47.47
2018-01-23T16:18:43.049Z,44.88
2018-01-23T16:21:12.009Z,50.03
2018-01-23T16:23:40.721Z,45.12
2018-01-23T16:26:09.735Z,53.15
2018-01-23T16:28:38.418Z,38.90
2018-01-23T16:31:07.218Z,49.30
2018-01-23T16:33:35.725Z,37.95
2018-01-23T16:36:04.484Z,38.85
2018-01-23T16:38:33.135Z,43.25
2018-01-23T16:41:01.803Z,36.80
2018-01-23T16:43:30.397Z,39.55
2018-01-23T16:45:59.587Z,54.67
2018-01-23T16:48:28.188Z,43.40
2018-01-23T16:50:56.653Z,34.70
2018-01-23T16:53:27.509Z,33.38
2018-01-23T16:55:55.941Z,30.88
2018-01-23T16:58:24.417Z,35.65
2018-01-23T17:00:52.930Z,44.55
2018-01-23T17:03:21.391Z,32.88
2018-01-23T17:05:50.034Z,37.25
2018-01-23T17:08:20.250Z,44.65
2018-01-23T17:10:48.899Z,42.85
2018-01-23T17:13:17.407Z,38.08
2018-01-23T17:15:46.528Z,36.13
2018-01-23T17:18:15.680Z,34.33
2018-01-23T17:20:45.218Z,43.08
2018-01-23T17:23:13.799Z,46.47
2018-01-23T17:25:42.587Z,36.17
2018-01-23T17:28:12.917Z,37.17
2018-01-23T17:30:41.823Z,33.15
2018-01-23T17:33:11.345Z,45.05
2018-01-23T17:35:39.909Z,48.75
2018-01-23T17:38:12.190Z,32.28
2018-01-23T17:40:41.096Z,37.58
2018-01-23T17:43:09.815Z,33.58
2018-01-23T17:45:38.286Z,35.75
2018-01-23T17:48:06.903Z,34.67
2018-01-23T17:50:35.337Z,36.83
2018-01-23T17:53:03.881Z,30.40
2018-01-23T17:55:32.535Z,43.15
2018-01-23T17:58:01.627Z,29.63
2018-01-23T18:00:36.932Z,43.03
2018-01-23T18:03:06.260Z,41.03
2018-01-23T18:05:34.881Z,39.90
2018-01-23T18:08:04.300Z,41.53
2018-01-23T18:10:33.429Z,39.03
2018-01-23T18:13:01.862Z,39.25
2018-01-23T18:15:30.617Z,43.13
2018-01-23T18:17:59.056Z,40.38
2018-01-23T18:20:27.689Z,48.35
2018-01-23T18:22:56.169Z,52.08
2018-01-23T18:25:23.965Z,47.25
2018-01-23T18:27:52.243Z,39.30
2018-01-23T18:30:20.730Z,44.78
2018-01-23T18:32:49.231Z,60.33
2018-01-23T18:35:17.714Z,68.10
2018-01-23T18:37:46.359Z,37.40
2018-01-23T18:40:18.223Z,49.10
2018-01-23T18:42:48.580Z,49.40
2018-01-23T18:45:17.168Z,48.85
2018-01-23T18:47:46.530Z,50.12
2018-01-23T18:50:15.074Z,48.70
2018-01-23T18:52:44.897Z,44.30
2018-01-23T18:55:16.697Z,54.17
2018-01-23T18:57:46.125Z,49.88
2018-01-23T19:00:14.640Z,40.10
2018-01-23T19:02:47.672Z,53.33
2018-01-23T19:05:17.569Z,55.08
2018-01-23T19:07:46.209Z,53.85
2018-01-23T19:10:15.821Z,50.45
2018-01-23T19:12:44.402Z,47.03
2018-01-23T19:15:14.106Z,40.25
2018-01-23T19:17:42.695Z,45.65
2018-01-23T19:20:11.537Z,57.40
2018-01-23T19:22:41.783Z,46.30
2018-01-23T19:25:10.645Z,42.25
2018-01-23T19:27:39.385Z,44.47
2018-01-23T19:30:07.821Z,50.65
2018-01-23T19:32:37.337Z,41.55
2018-01-23T19:35:05.811Z,52.83
2018-01-23T19:37:34.978Z,37.75
2018-01-23T19:40:03.793Z,45.75
2018-01-23T19:45:07.160Z,48.80
2018-01-23T19:47:36.743Z,52.17
2018-01-23T19:50:05.544Z,52.17
2018-01-23T19:52:34.142Z,38.65
2018-01-23T19:55:02.817Z,42.67
2018-01-23T19:57:31.353Z,34.15
2018-01-23T20:00:00.017Z,41.03
2018-01-23T20:02:30.948Z,34.45
2018-01-23T20:04:59.555Z,37.15
2018-01-23T20:07:28.394Z,41.25
2018-01-23T20:09:57.084Z,42.20
2018-01-23T20:12:25.627Z,42.35
2018-01-23T20:14:55.071Z,44.25
2018-01-23T20:17:24.897Z,36.70
2018-01-23T20:19:54.773Z,39.60
2018-01-23T20:22:23.413Z,41.50
2018-01-23T20:24:52.209Z,37.35
2018-01-23T20:27:20.952Z,46.88
2018-01-23T20:29:50.113Z,33.22
2018-01-23T20:32:19.444Z,37.90
2018-01-23T20:34:48.853Z,32.13
2018-01-23T20:37:18.583Z,35.97
2018-01-23T20:39:51.241Z,21.20
2018-01-23T20:42:20.173Z,25.80
2018-01-23T20:44:48.642Z,24.67
2018-01-23T20:47:17.325Z,32.38
2018-01-23T20:49:48.791Z,24.90
2018-01-23T20:52:17.493Z,29.23
2018-01-23T20:54:46.223Z,30.88
2018-01-23T20:57:14.746Z,27.37
2018-01-23T20:59:43.375Z,26.02
2018-01-23T21:02:12.071Z,21.00
2018-01-23T21:04:41.085Z,22.13
2018-01-23T21:07:09.611Z,24.50
2018-01-23T21:09:39.084Z,26.80
2018-01-23T21:12:07.796Z,30.02
2018-01-23T21:14:36.477Z,21.58
2018-01-23T21:17:05.010Z,24.63
2018-01-23T21:19:33.715Z,27.45
2018-01-23T21:22:02.132Z,28.23
2018-01-23T21:24:30.640Z,26.15
2018-01-23T21:26:59.374Z,26.65
2018-01-23T21:29:28.182Z,31.40
2018-01-23T21:31:57.121Z,30.55
2018-01-23T21:34:25.822Z,28.00
2018-01-23T21:36:54.256Z,27.62
2018-01-23T21:39:22.677Z,33.20
2018-01-23T21:41:51.279Z,39.47
2018-01-23T21:44:19.743Z,36.58
2018-01-23T21:46:48.486Z,37.08
2018-01-23T21:49:17.042Z,33.92
2018-01-23T21:51:45.620Z,30.73
2018-01-23T21:54:14.194Z,34.95
2018-01-23T21:56:42.797Z,35.25
2018-01-23T21:59:11.493Z,36.95
2018-01-23T22:01:45.795Z,38.97
2018-01-23T22:04:14.418Z,43.80
2018-01-23T22:06:42.955Z,48.40
2018-01-23T22:09:11.765Z,44.20
2018-01-23T22:11:40.435Z,52.38
2018-01-23T22:14:09.060Z,55.90
2018-01-23T22:16:37.549Z,52.28
2018-01-23T22:19:07.617Z,52.00
2018-01-23T22:21:36.948Z,52.92
2018-01-23T22:24:05.526Z,63.53
2018-01-23T22:26:33.985Z,53.05
2018-01-23T22:29:02.484Z,51.55
2018-01-23T22:31:30.995Z,51.90
2018-01-23T22:33:59.410Z,54.45
2018-01-23T22:36:27.878Z,50.60
2018-01-23T22:38:56.557Z,45.70
2018-01-23T22:41:24.986Z,53.72
2018-01-23T22:43:53.398Z,58.55
2018-01-23T22:46:21.854Z,57.95
2018-01-23T22:48:50.333Z,59.53
2018-01-23T22:51:18.912Z,62.08
2018-01-23T22:53:47.579Z,66.57
2018-01-23T22:56:16.218Z,73.47
2018-01-23T22:58:48.273Z,58.47
2018-01-23T23:01:16.891Z,61.17
2018-01-23T23:03:45.490Z,67.68
2018-01-23T23:06:14.282Z,56.28
2018-01-23T23:08:42.864Z,56.20
2018-01-23T23:11:11.605Z,57.00
2018-01-23T23:13:40.235Z,64.57
2018-01-23T23:16:08.699Z,56.40
2018-01-23T23:18:37.174Z,56.58
2018-01-23T23:21:05.634Z,67.60
2018-01-23T23:23:34.054Z,60.10
2018-01-23T23:26:02.529Z,52.53
2018-01-23T23:28:31.378Z,54.38
2018-01-23T23:30:59.865Z,49.38
2018-01-23T23:33:28.273Z,52.47
2018-01-23T23:35:56.957Z,46.83
2018-01-23T23:38:25.453Z,46.72
2018-01-23T23:40:54.025Z,50.67
2018-01-23T23:43:22.505Z,48.28
2018-01-23T23:45:50.991Z,53.78
2018-01-23T23:48:19.471Z,47.13
2018-01-23T23:50:48.244Z,44.78
2018-01-23T23:53:16.751Z,45.30
2018-01-23T23:55:45.345Z,47.00
2018-01-23T23:58:14.246Z,42.10
